createdAt,value
2023-05-20T00:01:43.947Z,88.29
2023-05-20T00:04:12.141Z,87.86
2023-05-20T00:06:40.256Z,89.59
2023-05-20T00:09:08.286Z,88.49
2023-05-20T00:11:36.171Z,88.64
2023-05-20T00:14:04.143Z,88.93
2023-05-20T00:16:32.261Z,89.19
2023-05-20T00:19:03.673Z,88.86
2023-05-20T00:21:31.962Z,88.99
2023-05-20T00:23:59.936Z,89.47
2023-05-20T00:26:29.113Z,89.12
2023-05-20T00:28:58.528Z,88.30
2023-05-20T00:31:26.597Z,89.03
2023-05-20T00:33:54.742Z,89.36
2023-05-20T00:36:22.681Z,88.96
2023-05-20T00:38:51.111Z,89.67
2023-05-20T00:41:19.018Z,89.30
2023-05-20T00:43:47.042Z,87.98
2023-05-20T00:46:14.967Z,87.57
2023-05-20T00:48:44.652Z,88.39
2023-05-20T00:51:14.595Z,87.69
2023-05-20T00:53:43.846Z,86.15
2023-05-20T00:56:12.410Z,86.89
2023-05-20T00:58:40.914Z,88.44
2023-05-20T01:01:08.985Z,89.34
2023-05-20T01:03:37.436Z,89.48
2023-05-20T01:06:05.459Z,88.25
2023-05-20T01:08:34.468Z,87.23
2023-05-20T01:11:05.211Z,87.40
2023-05-20T01:13:43.367Z,88.46
2023-05-20T01:16:15.043Z,89.08
2023-05-20T01:18:43.743Z,88.53
2023-05-20T01:21:14.122Z,88.31
2023-05-20T01:23:42.894Z,89.06
2023-05-20T01:26:14.088Z,89.45
2023-05-20T01:28:45.823Z,89.92
2023-05-20T01:31:26.441Z,90.27
2023-05-20T01:33:58.598Z,89.94
2023-05-20T01:36:28.800Z,90.57
2023-05-20T01:38:57.833Z,91.15
2023-05-20T01:41:27.541Z,91.81
2023-05-20T01:43:56.491Z,90.68
2023-05-20T01:46:24.680Z,91.03
2023-05-20T01:48:53.591Z,90.54
2023-05-20T01:51:21.599Z,91.11
2023-05-20T01:53:49.454Z,90.27
2023-05-20T01:56:17.397Z,89.97
2023-05-20T01:58:45.346Z,90.14
2023-05-20T02:01:13.400Z,90.68
2023-05-20T02:03:44.007Z,90.79
2023-05-20T02:06:11.974Z,91.16
2023-05-20T02:08:39.877Z,90.72
2023-05-20T02:11:07.789Z,90.89
2023-05-20T02:13:36.971Z,92.39
2023-05-20T02:16:05.403Z,92.28
2023-05-20T02:18:35.517Z,93.29
2023-05-20T02:21:04.942Z,92.12
2023-05-20T02:23:32.951Z,91.83
2023-05-20T02:26:01.400Z,91.53
2023-05-20T02:28:29.482Z,91.50
2023-05-20T02:30:57.372Z,90.96
2023-05-20T02:33:26.104Z,91.84
2023-05-20T02:35:54.066Z,90.66
2023-05-20T02:38:22.224Z,90.13
2023-05-20T02:40:50.344Z,89.90
2023-05-20T02:43:18.280Z,90.74
2023-05-20T02:45:46.424Z,91.57
2023-05-20T02:48:14.859Z,91.60
2023-05-20T02:54:13.873Z,92.68
2023-05-20T02:56:42.502Z,92.78
2023-05-20T02:59:10.400Z,92.91
2023-05-20T03:01:38.664Z,93.01
2023-05-20T03:04:31.985Z,92.01
2023-05-20T03:06:59.996Z,92.01
2023-05-20T03:09:30.426Z,91.41
2023-05-20T03:11:58.456Z,91.45
2023-05-20T03:14:26.331Z,91.74
2023-05-20T03:16:56.216Z,91.94
2023-05-20T03:19:24.443Z,91.90
2023-05-20T03:21:52.540Z,91.71
2023-05-20T03:24:20.527Z,91.24
2023-05-20T03:26:48.466Z,91.86
2023-05-20T03:29:18.155Z,91.42
2023-05-20T03:31:46.643Z,91.75
2023-05-20T03:34:15.052Z,93.06
2023-05-20T03:36:43.488Z,93.01
2023-05-20T03:39:11.883Z,92.61
2023-05-20T03:41:40.058Z,91.76
2023-05-20T03:44:08.794Z,91.79
2023-05-20T03:46:36.844Z,91.24
2023-05-20T03:49:05.807Z,91.81
2023-05-20T03:51:34.003Z,91.66
2023-05-20T03:54:07.932Z,91.30
2023-05-20T03:56:36.700Z,91.71
2023-05-20T03:59:04.714Z,91.31
2023-05-20T04:01:34.113Z,91.60
2023-05-20T04:04:02.152Z,92.39
2023-05-20T04:06:31.802Z,92.60
2023-05-20T04:09:01.433Z,94.29
2023-05-20T04:11:29.378Z,94.64
2023-05-20T04:13:58.856Z,93.63
2023-05-20T04:16:26.860Z,92.89
2023-05-20T04:18:54.789Z,92.32
2023-05-20T04:21:22.873Z,92.28
2023-05-20T04:23:50.772Z,92.28
2023-05-20T04:26:19.127Z,92.32
2023-05-20T04:28:50.230Z,92.42
2023-05-20T04:31:18.962Z,92.97
2023-05-20T04:33:47.021Z,93.89
2023-05-20T04:36:16.628Z,94.45
2023-05-20T04:38:45.406Z,94.91
2023-05-20T04:41:13.579Z,95.13
2023-05-20T04:43:41.828Z,95.04
2023-05-20T04:46:10.115Z,95.40
2023-05-20T04:48:38.375Z,95.02
2023-05-20T04:51:06.952Z,94.82
2023-05-20T04:53:36.266Z,94.56
2023-05-20T04:56:04.646Z,94.04
2023-05-20T04:58:33.604Z,93.80
2023-05-20T05:01:02.961Z,93.73
2023-05-20T05:03:31.510Z,93.91
2023-05-20T05:06:00.477Z,92.72
2023-05-20T05:08:28.505Z,92.48
2023-05-20T05:10:56.597Z,92.26
2023-05-20T05:13:24.593Z,93.04
2023-05-20T05:15:59.914Z,92.74
2023-05-20T05:18:29.692Z,92.48
2023-05-20T05:21:05.072Z,93.60
2023-05-20T05:23:35.331Z,94.27
2023-05-20T05:26:03.619Z,94.21
2023-05-20T05:28:31.652Z,94.03
2023-05-20T05:31:22.855Z,92.14
2023-05-20T05:33:51.220Z,91.75
2023-05-20T05:36:19.441Z,91.81
2023-05-20T05:38:47.416Z,93.33
2023-05-20T05:41:15.800Z,94.22
2023-05-20T05:43:44.017Z,93.36
2023-05-20T05:46:12.560Z,93.64
2023-05-20T05:48:42.784Z,93.29
2023-05-20T05:51:14.703Z,92.67
2023-05-20T05:53:43.369Z,91.73
2023-05-20T05:56:11.690Z,90.44
2023-05-20T05:58:40.246Z,90.01
2023-05-20T06:01:08.655Z,88.88
2023-05-20T06:03:36.882Z,88.60
2023-05-20T06:06:05.080Z,87.40
2023-05-20T06:08:34.300Z,82.31
2023-05-20T06:11:03.004Z,76.83
2023-05-20T06:13:32.052Z,67.48
2023-05-20T06:16:00.416Z,64.56
2023-05-20T06:18:28.830Z,59.96
2023-05-20T06:21:01.376Z,59.04
2023-05-20T06:23:29.588Z,55.98
2023-05-20T06:26:02.241Z,51.80
2023-05-20T06:28:31.338Z,49.62
2023-05-20T06:30:59.456Z,47.72
2023-05-20T06:33:30.035Z,44.88
2023-05-20T06:36:02.697Z,43.22
2023-05-20T06:38:32.275Z,42.38
2023-05-20T06:41:00.493Z,43.07
2023-05-20T06:43:28.695Z,43.51
2023-05-20T06:46:10.184Z,41.77
2023-05-20T06:48:56.674Z,40.08
2023-05-20T06:51:24.779Z,42.29
2023-05-20T06:53:53.254Z,42.10
2023-05-20T06:56:22.012Z,41.24
2023-05-20T06:58:50.222Z,40.56
2023-05-20T07:01:18.585Z,39.87
2023-05-20T07:03:48.188Z,40.62
2023-05-20T07:06:16.242Z,38.60
2023-05-20T07:08:44.578Z,36.11
2023-05-20T07:11:13.092Z,36.48
2023-05-20T07:13:41.226Z,35.36
2023-05-20T07:16:09.446Z,35.51
2023-05-20T07:18:40.036Z,34.13
2023-05-20T07:21:08.184Z,32.80
2023-05-20T07:23:58.776Z,31.62
2023-05-20T07:26:26.941Z,29.69
2023-05-20T07:28:55.423Z,28.58
2023-05-20T07:31:24.578Z,30.80
2023-05-20T07:33:53.049Z,30.86
2023-05-20T07:36:21.180Z,34.40
2023-05-20T07:39:01.776Z,35.61
2023-05-20T07:41:35.817Z,36.84
2023-05-20T07:44:05.720Z,37.04
2023-05-20T07:46:35.920Z,37.84
2023-05-20T07:49:06.169Z,39.13
2023-05-20T07:51:37.392Z,41.74
2023-05-20T07:54:06.873Z,42.25
2023-05-20T07:56:35.002Z,40.06
2023-05-20T07:59:03.931Z,43.77
2023-05-20T08:01:37.663Z,45.54
2023-05-20T08:04:06.824Z,44.17
2023-05-20T08:06:35.588Z,44.59
2023-05-20T08:09:05.698Z,45.02
2023-05-20T08:11:37.177Z,44.07
2023-05-20T08:14:06.939Z,42.23
2023-05-20T08:16:40.877Z,46.03
2023-05-20T08:19:09.557Z,45.07
2023-05-20T08:21:38.306Z,44.62
2023-05-20T08:24:07.611Z,46.52
2023-05-20T08:26:37.029Z,48.54
2023-05-20T08:29:05.224Z,49.53
2023-05-20T08:31:33.839Z,49.20
2023-05-20T08:34:02.604Z,50.18
2023-05-20T08:36:30.882Z,48.06
2023-05-20T08:38:59.216Z,49.42
2023-05-20T08:41:28.098Z,50.07
2023-05-20T08:43:57.847Z,48.89
2023-05-20T08:46:27.218Z,48.29
2023-05-20T08:48:59.772Z,49.73
2023-05-20T08:51:29.979Z,45.51
2023-05-20T08:54:00.230Z,46.30
2023-05-20T08:56:30.816Z,45.70
2023-05-20T08:58:59.560Z,44.69
2023-05-20T09:01:28.353Z,46.19
2023-05-20T09:03:57.627Z,45.69
2023-05-20T09:06:26.271Z,46.35
2023-05-20T09:08:54.699Z,48.60
2023-05-20T09:11:23.466Z,48.64
2023-05-20T09:13:51.934Z,48.90
2023-05-20T09:16:20.517Z,49.54
2023-05-20T09:18:48.782Z,49.39
2023-05-20T09:21:17.369Z,48.14
2023-05-20T09:23:49.682Z,50.20
2023-05-20T09:26:19.452Z,49.90
2023-05-20T09:28:47.845Z,46.58
2023-05-20T09:31:16.210Z,47.58
2023-05-20T09:33:44.763Z,49.52
2023-05-20T09:36:16.414Z,51.83
2023-05-20T09:38:47.902Z,49.79
2023-05-20T09:41:17.338Z,49.41
2023-05-20T09:43:46.172Z,49.18
2023-05-20T09:46:15.374Z,49.76
2023-05-20T09:48:45.270Z,52.86
2023-05-20T09:51:15.377Z,50.93
2023-05-20T09:53:44.201Z,48.52
2023-05-20T09:56:13.254Z,49.78
2023-05-20T09:58:45.781Z,50.25
2023-05-20T10:01:14.477Z,48.85
2023-05-20T10:03:44.444Z,49.19
2023-05-20T10:06:28.049Z,47.05
2023-05-20T10:09:13.588Z,48.60
2023-05-20T10:12:02.917Z,49.27
2023-05-20T10:14:56.860Z,50.97
2023-05-20T10:17:54.357Z,46.78
2023-05-20T10:20:22.806Z,50.23
2023-05-20T10:23:00.163Z,46.50
2023-05-20T10:25:29.384Z,47.42
2023-05-20T10:28:09.871Z,46.44
2023-05-20T10:30:40.679Z,48.42
2023-05-20T10:33:20.405Z,50.29
2023-05-20T10:35:54.948Z,54.60
2023-05-20T10:38:23.648Z,54.40
2023-05-20T10:40:52.775Z,56.22
2023-05-20T10:43:31.096Z,54.64
2023-05-20T10:46:00.996Z,56.15
2023-05-20T10:48:33.308Z,56.33
2023-05-20T10:51:06.307Z,57.90
2023-05-20T10:53:42.982Z,57.01
2023-05-20T10:56:22.253Z,59.31
2023-05-20T10:58:52.584Z,58.93
2023-05-20T11:01:26.875Z,60.02
2023-05-20T11:03:57.859Z,60.21
2023-05-20T11:06:29.227Z,57.37
2023-05-20T11:09:07.063Z,56.92
2023-05-20T11:11:35.755Z,56.02
2023-05-20T11:14:04.385Z,54.31
2023-05-20T11:16:32.703Z,53.32
2023-05-20T11:19:01.464Z,53.35
2023-05-20T11:21:30.205Z,54.73
2023-05-20T11:23:58.933Z,56.96
2023-05-20T11:26:29.638Z,61.93
2023-05-20T11:28:59.340Z,65.43
2023-05-20T11:31:28.924Z,65.75
2023-05-20T11:33:57.805Z,65.60
2023-05-20T11:36:28.432Z,71.71
2023-05-20T11:39:01.161Z,74.50
2023-05-20T11:41:29.939Z,76.39
2023-05-20T11:43:59.640Z,76.00
2023-05-20T11:46:29.136Z,77.85
2023-05-20T11:48:58.415Z,75.97
2023-05-20T11:51:30.966Z,78.19
2023-05-20T11:54:03.298Z,81.42
2023-05-20T11:56:34.210Z,82.70
2023-05-20T11:59:03.659Z,85.57
2023-05-20T12:01:46.105Z,87.65
2023-05-20T12:04:15.379Z,85.39
2023-05-20T12:06:44.532Z,79.55
2023-05-20T12:09:14.643Z,77.99
2023-05-20T12:11:45.116Z,77.17
2023-05-20T12:14:13.844Z,75.84
2023-05-20T12:16:42.491Z,76.60
2023-05-20T12:19:10.883Z,73.00
2023-05-20T12:21:39.453Z,76.04
2023-05-20T12:24:09.080Z,80.47
2023-05-20T12:26:37.643Z,77.68
2023-05-20T12:29:07.430Z,81.87
2023-05-20T12:31:36.300Z,78.78
2023-05-20T12:34:04.949Z,81.79
2023-05-20T12:36:34.257Z,85.70
2023-05-20T12:39:02.648Z,84.29
2023-05-20T12:41:31.243Z,84.62
2023-05-20T12:43:59.774Z,88.80
2023-05-20T12:46:28.390Z,88.94
2023-05-20T12:48:56.558Z,89.22
2023-05-20T12:51:25.052Z,89.59
2023-05-20T12:53:53.627Z,90.29
2023-05-20T12:56:22.642Z,90.31
2023-05-20T12:58:51.053Z,90.34
2023-05-20T13:01:19.730Z,93.77
2023-05-20T13:03:48.481Z,93.89
2023-05-20T13:06:17.170Z,93.40
2023-05-20T13:08:45.900Z,91.91
2023-05-20T13:11:14.473Z,90.42
2023-05-20T13:13:43.471Z,91.59
2023-05-20T13:16:12.491Z,88.11
2023-05-20T13:18:41.154Z,87.75
2023-05-20T13:21:09.600Z,90.06
2023-05-20T13:23:39.633Z,96.05
2023-05-20T13:26:09.586Z,95.50
2023-05-20T13:28:38.139Z,95.25
2023-05-20T13:31:07.482Z,96.30
2023-05-20T13:33:36.150Z,94.74
2023-05-20T13:36:04.962Z,96.75
2023-05-20T13:38:35.147Z,98.20
2023-05-20T13:41:04.259Z,96.43
2023-05-20T13:43:33.735Z,95.11
2023-05-20T13:46:02.935Z,94.59
2023-05-20T13:48:33.488Z,93.27
2023-05-20T13:51:02.409Z,92.07
2023-05-20T13:53:30.938Z,90.27
2023-05-20T13:55:59.647Z,90.29
2023-05-20T13:58:28.430Z,90.55
2023-05-20T14:00:57.455Z,89.12
2023-05-20T14:03:26.288Z,86.63
2023-05-20T14:05:55.092Z,88.13
2023-05-20T14:08:23.794Z,83.91
2023-05-20T14:10:56.139Z,82.40
2023-05-20T14:13:25.417Z,83.09
2023-05-20T14:15:56.917Z,82.89
2023-05-20T14:18:25.514Z,87.41
2023-05-20T14:20:53.737Z,86.22
2023-05-20T14:23:22.430Z,83.28
2023-05-20T14:25:50.630Z,88.96
2023-05-20T14:28:18.943Z,85.20
2023-05-20T14:30:47.464Z,83.36
2023-05-20T14:33:16.130Z,82.53
2023-05-20T14:35:44.373Z,79.82
2023-05-20T14:38:12.931Z,86.63
2023-05-20T14:40:41.310Z,80.51
2023-05-20T14:43:09.880Z,81.21
2023-05-20T14:45:37.909Z,84.26
2023-05-20T14:48:07.360Z,86.73
2023-05-20T14:50:36.212Z,92.66
2023-05-20T14:53:04.967Z,88.65
2023-05-20T14:55:33.902Z,91.14
2023-05-20T14:58:02.504Z,86.97
2023-05-20T15:00:33.122Z,88.36
2023-05-20T15:03:02.015Z,89.92
2023-05-20T15:05:30.501Z,90.01
2023-05-20T15:07:58.899Z,89.14
2023-05-20T15:10:27.625Z,90.53
2023-05-20T15:12:56.215Z,91.35
2023-05-20T15:15:24.952Z,90.29
2023-05-20T15:17:53.422Z,88.02
2023-05-20T15:20:22.095Z,87.78
2023-05-20T15:22:50.385Z,88.30
2023-05-20T15:25:18.703Z,93.07
2023-05-20T15:27:47.308Z,94.20
2023-05-20T15:30:16.530Z,94.14
2023-05-20T15:32:45.260Z,91.88
2023-05-20T15:35:13.849Z,91.00
2023-05-20T15:37:42.349Z,92.69
2023-05-20T15:40:11.743Z,92.02
2023-05-20T15:42:41.426Z,92.20
2023-05-20T15:45:10.440Z,93.72
2023-05-20T15:47:40.831Z,95.60
2023-05-20T15:50:11.682Z,95.83
2023-05-20T15:52:40.657Z,95.97
2023-05-20T15:55:09.520Z,95.39
2023-05-20T15:57:38.166Z,95.04
2023-05-20T16:00:10.770Z,96.47
2023-05-20T16:02:40.615Z,96.43
2023-05-20T16:05:09.376Z,96.40
2023-05-20T16:07:38.084Z,96.73
2023-05-20T16:10:07.214Z,97.20
2023-05-20T16:12:36.088Z,96.98
2023-05-20T16:15:05.232Z,98.98
2023-05-20T16:17:33.959Z,99.19
2023-05-20T16:20:03.166Z,97.68
2023-05-20T16:22:32.782Z,98.21
2023-05-20T16:25:03.438Z,96.97
2023-05-20T16:27:33.001Z,93.35
2023-05-20T16:30:01.533Z,94.24
2023-05-20T16:32:30.771Z,96.88
2023-05-20T16:34:59.135Z,96.00
2023-05-20T16:37:27.748Z,97.95
2023-05-20T16:39:56.225Z,94.76
2023-05-20T16:42:24.643Z,91.95
2023-05-20T16:44:53.360Z,92.31
2023-05-20T16:47:23.816Z,91.90
2023-05-20T16:49:53.055Z,92.03
2023-05-20T16:52:22.037Z,92.31
2023-05-20T16:54:52.347Z,92.46
2023-05-20T16:57:22.607Z,90.63
2023-05-20T16:59:51.345Z,92.99
2023-05-20T17:02:19.896Z,91.60
2023-05-20T17:04:49.076Z,91.29
2023-05-20T17:07:17.986Z,91.75
2023-05-20T17:09:46.823Z,91.89
2023-05-20T17:12:15.081Z,93.72
2023-05-20T17:14:43.592Z,94.06
2023-05-20T17:17:14.352Z,94.06
2023-05-20T17:19:42.882Z,94.50
2023-05-20T17:22:11.991Z,94.72
2023-05-20T17:24:40.533Z,94.19
2023-05-20T17:27:09.224Z,93.78
2023-05-20T17:29:37.630Z,94.34
2023-05-20T17:32:06.796Z,93.56
2023-05-20T17:34:35.396Z,93.01
2023-05-20T17:37:03.914Z,93.13
2023-05-20T17:39:32.441Z,93.60
2023-05-20T17:42:00.806Z,94.31
2023-05-20T17:44:32.046Z,94.07
2023-05-20T17:47:01.007Z,94.00
2023-05-20T17:49:29.552Z,93.58
2023-05-20T17:51:57.930Z,92.83
2023-05-20T17:54:26.340Z,92.70
2023-05-20T17:56:55.063Z,92.94
2023-05-20T17:59:23.544Z,93.35
2023-05-20T18:01:51.973Z,93.35
2023-05-20T18:04:21.696Z,93.52
2023-05-20T18:06:50.226Z,92.97
2023-05-20T18:09:19.326Z,93.36
2023-05-20T18:11:47.664Z,92.63
2023-05-20T18:14:19.088Z,92.95
2023-05-20T18:16:47.670Z,93.56
2023-05-20T18:19:18.408Z,92.91
2023-05-20T18:21:46.741Z,92.16
2023-05-20T18:24:16.976Z,92.36
2023-05-20T18:26:46.616Z,92.84
2023-05-20T18:29:14.880Z,92.27
2023-05-20T18:31:43.754Z,92.89
2023-05-20T18:34:12.414Z,94.19
2023-05-20T18:36:41.297Z,94.27
2023-05-20T18:39:10.474Z,94.44
2023-05-20T18:41:46.549Z,94.10
2023-05-20T18:44:19.626Z,94.76
2023-05-20T18:46:48.278Z,94.88
2023-05-20T18:49:16.734Z,94.69
2023-05-20T18:51:45.226Z,94.02
2023-05-20T18:54:13.774Z,93.83
2023-05-20T18:56:42.298Z,93.44
2023-05-20T18:59:11.056Z,92.86
2023-05-20T19:01:39.842Z,93.05
2023-05-20T19:04:08.464Z,93.41
2023-05-20T19:06:37.961Z,94.24
2023-05-20T19:09:06.820Z,95.25
2023-05-20T19:11:35.265Z,96.41
2023-05-20T19:14:05.002Z,98.06
2023-05-20T19:16:34.208Z,97.71
2023-05-20T19:19:02.684Z,97.28
2023-05-20T19:21:34.106Z,97.97
2023-05-20T19:24:02.683Z,97.76
2023-05-20T19:26:32.748Z,97.03
2023-05-20T19:29:01.639Z,96.24
2023-05-20T19:31:30.983Z,97.21
2023-05-20T19:33:59.665Z,97.01
2023-05-20T19:36:28.166Z,98.08
2023-05-20T19:38:58.954Z,97.76
2023-05-20T19:41:27.719Z,98.75
2023-05-20T19:43:56.082Z,100.00
2023-05-20T19:46:24.813Z,99.15
2023-05-20T19:48:53.247Z,98.56
2023-05-20T19:51:22.083Z,98.16
2023-05-20T19:53:50.734Z,98.04
2023-05-20T19:56:22.359Z,97.63
2023-05-20T19:58:52.004Z,98.37
2023-05-20T20:01:20.830Z,97.48
2023-05-20T20:03:49.212Z,97.69
2023-05-20T20:06:17.542Z,97.17
2023-05-20T20:08:46.381Z,97.33
2023-05-20T20:11:15.390Z,96.72
2023-05-20T20:13:43.869Z,96.66
2023-05-20T20:16:12.458Z,96.44
2023-05-20T20:18:41.022Z,95.92
2023-05-20T20:21:11.383Z,95.62
2023-05-20T20:23:40.996Z,95.56
2023-05-20T20:26:12.170Z,95.04
2023-05-20T20:28:40.770Z,95.17
2023-05-20T20:31:09.164Z,95.39
2023-05-20T20:33:37.821Z,95.91
2023-05-20T20:36:06.554Z,97.10
2023-05-20T20:38:35.427Z,96.73
2023-05-20T20:41:04.313Z,96.68
2023-05-20T20:43:35.155Z,96.34
2023-05-20T20:46:03.886Z,96.14
2023-05-20T20:48:33.087Z,97.07
2023-05-20T20:51:02.507Z,96.95
2023-05-20T20:53:31.008Z,96.72
2023-05-20T20:55:59.613Z,96.99
2023-05-20T20:58:28.088Z,97.09
2023-05-20T21:00:59.575Z,97.85
2023-05-20T21:03:28.190Z,97.74
2023-05-20T21:05:57.270Z,97.24
2023-05-20T21:08:30.015Z,96.78
2023-05-20T21:10:59.628Z,96.68
2023-05-20T21:13:30.249Z,96.15
2023-05-20T21:15:59.059Z,95.37
2023-05-20T21:18:27.439Z,95.10
2023-05-20T21:20:57.111Z,94.03
2023-05-20T21:23:25.549Z,93.72
2023-05-20T21:25:54.013Z,93.76
2023-05-20T21:28:23.167Z,94.33
2023-05-20T21:30:51.669Z,95.02
2023-05-20T21:33:21.349Z,94.95
2023-05-20T21:35:49.595Z,94.16
2023-05-20T21:38:17.510Z,93.35
2023-05-20T21:40:45.718Z,92.51
2023-05-20T21:43:13.951Z,91.85
2023-05-20T21:45:42.044Z,91.28
2023-05-20T21:48:10.019Z,90.82
2023-05-20T21:50:37.956Z,90.90
2023-05-20T21:53:06.104Z,91.31
2023-05-20T21:55:34.477Z,92.10
2023-05-20T21:58:02.637Z,92.30
2023-05-20T22:00:30.750Z,91.64
2023-05-20T22:02:59.223Z,91.82
2023-05-20T22:05:27.706Z,92.77
2023-05-20T22:07:56.189Z,92.11
2023-05-20T22:10:25.040Z,91.60
2023-05-20T22:12:53.052Z,91.69
2023-05-20T22:15:21.169Z,91.75
2023-05-20T22:17:49.624Z,91.30
2023-05-20T22:20:17.684Z,92.25
2023-05-20T22:22:45.995Z,92.80
2023-05-20T22:25:14.354Z,91.96
2023-05-20T22:27:43.139Z,92.03
2023-05-20T22:30:12.051Z,91.43
2023-05-20T22:32:40.664Z,91.50
2023-05-20T22:35:09.320Z,91.50
2023-05-20T22:37:37.266Z,92.09
2023-05-20T22:40:06.537Z,91.83
2023-05-20T22:42:34.521Z,91.75
2023-05-20T22:45:03.242Z,92.00
2023-05-20T22:47:31.395Z,91.64
2023-05-20T22:50:02.723Z,91.89
2023-05-20T22:52:32.969Z,92.25
2023-05-20T22:55:00.866Z,92.15
2023-05-20T22:57:29.356Z,92.45
2023-05-20T22:59:57.416Z,91.47
2023-05-20T23:02:25.498Z,91.66
2023-05-20T23:04:53.652Z,92.42
2023-05-20T23:07:22.102Z,92.61
2023-05-20T23:09:50.396Z,90.81
2023-05-20T23:12:18.431Z,90.26
2023-05-20T23:14:46.596Z,90.24
2023-05-20T23:17:14.625Z,90.68
2023-05-20T23:19:43.163Z,90.16
2023-05-20T23:22:11.226Z,90.94
2023-05-20T23:24:39.232Z,91.30
2023-05-20T23:27:07.168Z,90.84
2023-05-20T23:29:35.249Z,91.45
2023-05-20T23:32:03.325Z,90.93
2023-05-20T23:34:31.802Z,91.74
2023-05-20T23:36:59.760Z,92.10
2023-05-20T23:39:27.985Z,92.03
2023-05-20T23:41:55.953Z,92.13
2023-05-20T23:44:23.964Z,92.40
2023-05-20T23:46:51.818Z,92.10
2023-05-20T23:49:24.771Z,92.72
2023-05-20T23:51:53.310Z,92.65
2023-05-20T23:54:23.012Z,93.01
2023-05-20T23:56:51.136Z,92.49
2023-05-20T23:59:19.189Z,92.88
